createdAt,value
2022-11-02T00:02:39.603Z,12.20
2022-11-02T00:07:37.540Z,12.10
2022-11-02T00:12:35.463Z,12.00
2022-11-02T00:17:35.713Z,12.00
2022-11-02T00:22:39.931Z,12.00
2022-11-02T00:27:37.946Z,11.90
2022-11-02T00:32:40.502Z,11.90
2022-11-02T00:37:38.418Z,11.90
2022-11-02T00:42:36.361Z,11.80
2022-11-02T00:47:34.713Z,11.90
2022-11-02T00:52:34.081Z,11.80
2022-11-02T00:57:32.207Z,11.80
2022-11-02T01:02:30.380Z,11.80
2022-11-02T01:07:30.624Z,11.70
2022-11-02T01:12:30.070Z,11.60
2022-11-02T01:17:27.980Z,11.60
2022-11-02T01:22:25.949Z,11.60
2022-11-02T01:27:26.274Z,11.60
2022-11-02T01:32:25.574Z,11.50
2022-11-02T01:37:23.633Z,11.50
2022-11-02T01:42:23.117Z,11.40
2022-11-02T01:47:27.808Z,11.30
2022-11-02T01:52:30.158Z,11.30
2022-11-02T01:57:29.659Z,11.30
2022-11-02T02:02:29.675Z,11.30
2022-11-02T02:07:29.641Z,11.30
2022-11-02T02:12:29.857Z,11.20
2022-11-02T02:17:37.076Z,11.20
2022-11-02T02:23:25.167Z,11.10
2022-11-02T02:28:34.420Z,11.10
2022-11-02T02:33:35.313Z,11.10
2022-11-02T02:38:36.291Z,11.10
2022-11-02T02:43:44.249Z,11.10
2022-11-02T02:48:46.545Z,11.00
2022-11-02T02:53:48.611Z,11.00
2022-11-02T02:58:57.788Z,11.00
2022-11-02T03:03:55.985Z,11.00
2022-11-02T03:09:06.903Z,10.90
2022-11-02T03:14:18.835Z,10.90
2022-11-02T03:19:24.079Z,10.80
2022-11-02T03:24:27.847Z,10.80
2022-11-02T03:29:35.080Z,10.80
2022-11-02T03:34:40.147Z,10.50
2022-11-02T03:39:43.060Z,10.50
2022-11-02T03:44:44.992Z,10.40
2022-11-02T03:49:45.308Z,10.30
2022-11-02T03:54:49.736Z,10.40
2022-11-02T03:59:50.756Z,10.40
2022-11-02T04:04:50.453Z,10.40
2022-11-02T04:09:50.148Z,10.40
2022-11-02T04:14:50.229Z,10.40
2022-11-02T04:19:50.342Z,10.40
2022-11-02T04:25:06.989Z,10.30
2022-11-02T04:30:08.527Z,10.30
2022-11-02T04:35:09.229Z,10.30
2022-11-02T04:40:08.234Z,10.20
2022-11-02T04:45:09.039Z,10.10
2022-11-02T04:50:08.023Z,10.10
2022-11-02T04:55:07.069Z,10.00
2022-11-02T05:00:10.195Z,10.00
2022-11-02T05:05:12.177Z,10.00
2022-11-02T05:10:11.371Z,10.00
2022-11-02T05:15:11.745Z,10.00
2022-11-02T05:20:10.864Z,10.00
2022-11-02T05:25:09.711Z,10.00
2022-11-02T05:30:09.287Z,10.00
2022-11-02T05:35:09.888Z,10.10
2022-11-02T05:40:10.046Z,10.10
2022-11-02T05:45:09.247Z,10.10
2022-11-02T05:50:10.941Z,9.90
2022-11-02T05:55:09.887Z,9.90
2022-11-02T06:00:09.605Z,10.00
2022-11-02T06:05:11.805Z,9.90
2022-11-02T06:10:10.064Z,10.00
2022-11-02T06:15:09.184Z,10.00
2022-11-02T06:20:09.069Z,10.00
2022-11-02T06:25:15.017Z,10.10
2022-11-02T06:30:13.402Z,10.10
2022-11-02T06:35:12.221Z,10.10
2022-11-02T06:40:13.428Z,10.10
2022-11-02T06:45:13.148Z,10.10
2022-11-02T06:50:11.300Z,10.10
2022-11-02T06:55:11.363Z,10.00
2022-11-02T07:00:14.528Z,10.10
2022-11-02T07:05:15.182Z,10.10
2022-11-02T07:10:14.476Z,10.20
2022-11-02T07:15:12.488Z,10.20
2022-11-02T07:20:11.448Z,10.40
2022-11-02T07:25:11.000Z,10.40
2022-11-02T07:30:10.890Z,10.50
2022-11-02T07:35:12.495Z,10.80
2022-11-02T07:40:13.872Z,11.10
2022-11-02T07:45:13.552Z,11.40
2022-11-02T07:50:11.633Z,11.60
2022-11-02T07:55:09.950Z,11.90
2022-11-02T08:00:09.399Z,12.30
2022-11-02T08:05:11.016Z,12.50
2022-11-02T08:10:09.505Z,12.60
2022-11-02T08:15:08.468Z,12.60
2022-11-02T08:20:07.743Z,12.40
2022-11-02T08:30:34.339Z,12.70
2022-11-02T08:35:37.489Z,12.80
2022-11-02T08:40:39.277Z,12.70
2022-11-02T08:46:12.735Z,12.60
2022-11-02T08:50:57.544Z,12.60
2022-11-02T08:55:58.250Z,12.50
2022-11-02T09:00:56.866Z,12.60
2022-11-02T09:05:58.485Z,12.70
2022-11-02T09:11:00.715Z,13.30
2022-11-02T09:16:00.278Z,14.20
2022-11-02T09:21:02.043Z,14.60
2022-11-02T09:26:01.492Z,15.20
2022-11-02T09:31:03.863Z,15.90
2022-11-02T09:36:05.695Z,16.70
2022-11-02T09:41:12.960Z,18.30
2022-11-02T09:46:17.690Z,19.20
2022-11-02T09:51:18.745Z,20.40
2022-11-02T09:56:20.505Z,21.20
2022-11-02T10:01:29.992Z,22.00
2022-11-02T10:06:30.164Z,23.20
2022-11-02T10:11:43.866Z,23.40
2022-11-02T10:16:50.577Z,23.70
2022-11-02T10:21:54.617Z,24.10
2022-11-02T10:26:57.842Z,24.10
2022-11-02T10:31:58.302Z,23.40
2022-11-02T10:37:13.789Z,23.30
2022-11-02T10:42:31.432Z,24.30
2022-11-02T10:47:34.437Z,24.50
2022-11-02T10:52:41.532Z,24.80
2022-11-02T10:57:41.348Z,24.60
2022-11-02T11:02:39.307Z,25.60
2022-11-02T11:07:38.028Z,25.50
2022-11-02T11:12:42.235Z,25.20
2022-11-02T11:23:19.030Z,22.40
2022-11-02T11:28:26.295Z,19.30
2022-11-02T11:33:24.237Z,17.60
2022-11-02T11:38:26.177Z,17.00
2022-11-02T11:43:27.943Z,17.20
2022-11-02T11:48:34.805Z,16.70
2022-11-02T11:53:33.085Z,16.10
2022-11-02T11:58:33.771Z,15.80
2022-11-02T12:03:31.701Z,15.80
2022-11-02T12:08:44.621Z,15.70
2022-11-02T12:14:10.558Z,15.80
2022-11-02T12:19:22.145Z,16.00
2022-11-02T12:24:52.853Z,16.40
2022-11-02T12:30:22.763Z,16.70
2022-11-02T12:35:32.354Z,16.70
2022-11-02T12:40:43.269Z,16.60
2022-11-02T12:45:50.784Z,16.40
2022-11-02T12:50:59.270Z,16.40
2022-11-02T12:56:02.674Z,16.30
2022-11-02T13:01:13.505Z,15.90
2022-11-02T13:06:16.616Z,15.80
2022-11-02T13:11:23.044Z,15.80
2022-11-02T13:16:31.763Z,15.70
2022-11-02T13:21:43.684Z,15.80
2022-11-02T13:26:44.002Z,16.00
2022-11-02T13:31:48.636Z,16.10
2022-11-02T13:36:47.232Z,16.10
2022-11-02T13:42:20.914Z,16.20
2022-11-02T13:47:42.820Z,16.30
2022-11-02T13:52:44.520Z,16.30
2022-11-02T13:57:44.506Z,16.20
2022-11-02T14:02:44.670Z,15.90
2022-11-02T14:07:42.861Z,15.70
2022-11-02T14:12:45.493Z,15.60
2022-11-02T14:23:39.601Z,15.70
2022-11-02T14:28:44.950Z,15.70
2022-11-02T14:34:02.301Z,15.90
2022-11-02T14:39:09.762Z,16.00
2022-11-02T14:44:35.185Z,15.80
2022-11-02T14:49:35.992Z,15.70
2022-11-02T14:54:47.044Z,15.60
2022-11-02T14:59:50.978Z,15.50
2022-11-02T15:04:51.453Z,15.40
2022-11-02T15:09:57.733Z,15.30
2022-11-02T15:15:06.664Z,15.20
2022-11-02T15:20:30.809Z,15.20
2022-11-02T15:25:32.756Z,15.00
2022-11-02T15:30:41.642Z,14.80
2022-11-02T15:35:39.967Z,14.70
2022-11-02T15:40:49.158Z,14.70
2022-11-02T15:46:09.215Z,14.70
2022-11-02T15:51:17.125Z,14.70
2022-11-02T15:56:32.888Z,14.60
2022-11-02T16:01:32.891Z,14.50
2022-11-02T16:06:33.254Z,14.50
2022-11-02T16:11:31.939Z,14.50
2022-11-02T16:16:35.548Z,14.50
2022-11-02T16:21:35.296Z,14.50
2022-11-02T16:26:33.753Z,14.40
2022-11-02T16:31:31.935Z,14.20
2022-11-02T16:36:32.445Z,14.10
2022-11-02T16:41:33.695Z,14.00
2022-11-02T16:46:42.659Z,13.90
2022-11-02T16:51:41.176Z,13.90
2022-11-02T16:56:40.508Z,13.90
2022-11-02T17:01:41.498Z,13.90
2022-11-02T17:06:41.499Z,13.80
2022-11-02T17:11:44.607Z,13.70
2022-11-02T17:16:58.661Z,13.60
2022-11-02T17:22:11.641Z,13.50
2022-11-02T17:27:25.777Z,13.50
2022-11-02T17:32:23.867Z,13.40
2022-11-02T17:37:26.667Z,13.30
2022-11-02T17:42:43.253Z,13.30
2022-11-02T17:47:41.133Z,13.40
2022-11-02T17:52:39.527Z,13.40
2022-11-02T17:57:43.352Z,13.30
2022-11-02T18:02:41.851Z,13.30
2022-11-02T18:07:39.771Z,13.20
2022-11-02T18:12:39.098Z,13.10
2022-11-02T18:17:37.027Z,13.10
2022-11-02T18:22:34.993Z,13.00
2022-11-02T18:27:32.912Z,12.90
2022-11-02T18:32:32.439Z,12.80
2022-11-02T18:37:30.489Z,12.80
2022-11-02T18:42:29.306Z,12.70
2022-11-02T18:47:27.302Z,12.70
2022-11-02T18:52:31.023Z,12.60
2022-11-02T18:57:30.656Z,12.50
2022-11-02T19:02:29.489Z,12.40
2022-11-02T19:07:46.418Z,12.40
2022-11-02T19:12:44.540Z,12.20
2022-11-02T19:17:42.502Z,12.10
2022-11-02T19:22:41.738Z,12.00
2022-11-02T19:27:39.624Z,11.80
2022-11-02T19:32:40.739Z,11.80
2022-11-02T19:37:39.183Z,11.70
2022-11-02T19:42:39.895Z,11.50
2022-11-02T19:47:38.292Z,11.40
2022-11-02T19:52:36.466Z,11.30
2022-11-02T19:57:34.540Z,11.20
2022-11-02T20:02:33.910Z,11.10
2022-11-02T20:07:31.871Z,11.10
2022-11-02T20:12:29.903Z,11.10
2022-11-02T20:17:38.040Z,11.00
2022-11-02T20:22:46.214Z,10.90
2022-11-02T20:27:45.076Z,10.90
2022-11-02T20:32:43.615Z,10.90
2022-11-02T20:37:41.560Z,10.80
2022-11-02T20:42:40.829Z,10.80
2022-11-02T20:47:39.270Z,10.70
2022-11-02T20:52:38.284Z,10.70
2022-11-02T20:57:37.723Z,10.60
2022-11-02T21:02:37.061Z,10.60
2022-11-02T21:07:35.015Z,10.60
2022-11-02T21:12:51.838Z,10.50
2022-11-02T21:17:51.183Z,10.40
2022-11-02T21:22:50.822Z,10.30
2022-11-02T21:27:50.335Z,10.30
2022-11-02T21:32:52.633Z,10.20
2022-11-02T21:37:50.992Z,10.10
2022-11-02T21:42:50.320Z,10.10
2022-11-02T21:47:51.958Z,10.10
2022-11-02T21:52:49.907Z,10.00
2022-11-02T21:57:47.927Z,9.90
2022-11-02T22:02:45.881Z,9.90
2022-11-02T22:07:59.098Z,9.80
2022-11-02T22:13:14.565Z,9.80
2022-11-02T22:18:12.498Z,9.70
2022-11-02T22:23:11.742Z,9.70
2022-11-02T22:28:09.671Z,9.60
2022-11-02T22:33:09.104Z,9.50
2022-11-02T22:38:24.374Z,9.40
2022-11-02T22:43:23.605Z,9.40
2022-11-02T22:48:21.524Z,9.30
2022-11-02T22:53:19.405Z,9.30
2022-11-02T22:58:17.309Z,9.20
2022-11-02T23:03:16.560Z,9.20
2022-11-02T23:08:14.856Z,9.10
2022-11-02T23:13:15.952Z,9.10
2022-11-02T23:18:17.737Z,9.10
2022-11-02T23:23:33.289Z,9.10
2022-11-02T23:28:56.838Z,9.00
2022-11-02T23:33:56.942Z,9.00
2022-11-02T23:39:12.407Z,9.00
2022-11-02T23:44:14.411Z,9.00
2022-11-02T23:49:14.447Z,8.90
2022-11-02T23:54:31.693Z,8.90
2022-11-02T23:59:29.674Z,8.80
